Portada
METAR-TAF:

METAR-TAF

Aeroports :

Dalton Municipal Airport

Dalton, Geòrgia, Estats Units d'Amèrica

latitud: 34-43-18N, longitud: 084-52-09W, altitud: 216 m

Observació

L'informe es va fer fa 23 minuts, a les 23:55 UTC
Vent calma
Temperatura 16°C
Humitat 100%
Pressió 1019 hPa
Visibilitat: 12.9 km
Cel ennuvolat a una alçada de 3300 ft

METAR: KDNN 172355Z AUTO 00000KT 8SM BKN033 16/16 A3008 RMK AO2 LTG DSNT SW T01590156

Hora: 20:18 (00:18 UTC)


TAF: manca

Observacions i pronòstics meteorològics de més de 4000 aeroports (METAR i TAF).

Les estacions disponibles són els punts grocs i vermells al mapa.

Posi el ratolí al punt desitjat per veure el nom de l'estació.

Feu clic per veure les observacions i els pronòstics meteorològics.

Per canviar el mapa: feu clic els botons verds amb una creu de color negre per apropar; al botó verd amb un guió per allunyar la imatge; o en les fletxes verdes per a mapes adjacents.


METAR-TAF: